createdAt,value
2023-03-21T00:02:57.692Z,62.91
2023-03-21T00:06:03.564Z,62.76
2023-03-21T00:09:10.215Z,62.65
2023-03-21T00:12:15.223Z,63.00
2023-03-21T00:15:20.553Z,63.23
2023-03-21T00:18:25.816Z,63.33
2023-03-21T00:21:46.629Z,63.31
2023-03-21T00:25:00.678Z,63.75
2023-03-21T00:28:08.594Z,64.28
2023-03-21T00:31:12.130Z,64.70
2023-03-21T00:34:14.942Z,64.86
2023-03-21T00:37:27.876Z,65.23
2023-03-21T00:40:40.422Z,65.05
2023-03-21T00:43:43.572Z,65.79
2023-03-21T00:47:00.871Z,66.00
2023-03-21T00:50:10.398Z,66.13
2023-03-21T00:53:16.903Z,66.34
2023-03-21T00:56:20.960Z,66.13
2023-03-21T00:59:23.638Z,66.46
2023-03-21T01:02:26.752Z,66.66
2023-03-21T01:05:45.928Z,66.76
2023-03-21T01:08:54.699Z,66.62
2023-03-21T01:11:58.844Z,66.96
2023-03-21T01:15:01.979Z,66.54
2023-03-21T01:18:05.055Z,66.80
2023-03-21T01:21:10.779Z,66.86
2023-03-21T01:24:13.435Z,66.80
2023-03-21T01:27:18.035Z,67.01
2023-03-21T01:30:24.000Z,67.06
2023-03-21T01:33:30.298Z,67.33
2023-03-21T01:36:33.272Z,67.58
2023-03-21T01:39:36.056Z,67.90
2023-03-21T01:42:40.261Z,68.12
2023-03-21T01:46:27.313Z,68.37
2023-03-21T01:49:36.165Z,68.35
2023-03-21T01:52:41.609Z,68.71
2023-03-21T01:55:44.638Z,68.94
2023-03-21T01:58:50.536Z,68.83
2023-03-21T02:01:53.437Z,69.29
2023-03-21T02:05:04.509Z,69.12
2023-03-21T02:08:10.465Z,69.33
2023-03-21T02:11:13.307Z,69.60
2023-03-21T02:14:28.387Z,69.52
2023-03-21T02:17:37.580Z,69.65
2023-03-21T02:21:19.901Z,69.62
2023-03-21T02:25:01.488Z,70.18
2023-03-21T02:28:12.765Z,69.91
2023-03-21T02:31:37.434Z,70.49
2023-03-21T02:35:04.052Z,70.30
2023-03-21T02:38:11.860Z,70.51
2023-03-21T02:41:25.389Z,70.68
2023-03-21T02:44:43.542Z,70.71
2023-03-21T02:47:49.917Z,71.20
2023-03-21T02:50:55.151Z,71.09
2023-03-21T02:54:28.174Z,71.25
2023-03-21T02:57:33.770Z,71.71
2023-03-21T03:00:46.081Z,71.67
2023-03-21T03:03:51.891Z,72.04
2023-03-21T03:07:16.292Z,71.75
2023-03-21T03:10:33.721Z,72.19
2023-03-21T03:13:53.829Z,72.09
2023-03-21T03:17:05.120Z,72.56
2023-03-21T03:23:44.391Z,73.07
2023-03-21T03:26:52.453Z,73.44
2023-03-21T03:29:58.831Z,73.85
2023-03-21T03:33:03.261Z,74.18
2023-03-21T03:36:10.974Z,74.96
2023-03-21T03:39:17.236Z,75.08
2023-03-21T03:42:28.677Z,75.12
2023-03-21T03:45:36.047Z,75.94
2023-03-21T03:48:46.753Z,77.72
2023-03-21T03:51:56.552Z,78.39
2023-03-21T03:54:59.984Z,78.13
2023-03-21T03:58:06.418Z,78.09
2023-03-21T04:01:14.220Z,78.05
2023-03-21T04:04:17.705Z,78.33
2023-03-21T04:07:21.812Z,78.33
2023-03-21T04:10:24.924Z,78.88
2023-03-21T04:13:29.153Z,79.81
2023-03-21T04:16:35.554Z,79.73
2023-03-21T04:19:41.058Z,79.65
2023-03-21T04:22:43.947Z,79.67
2023-03-21T04:25:57.085Z,79.76
2023-03-21T04:29:02.199Z,79.94
2023-03-21T04:32:06.267Z,79.96
2023-03-21T04:35:10.731Z,79.96
2023-03-21T04:38:13.682Z,79.82
2023-03-21T04:41:16.392Z,79.82
2023-03-21T04:44:20.921Z,79.82
2023-03-21T04:47:24.062Z,79.67
2023-03-21T04:50:26.717Z,79.74
2023-03-21T04:53:29.429Z,80.22
2023-03-21T04:56:33.980Z,80.28
2023-03-21T04:59:41.388Z,80.18
2023-03-21T05:02:44.051Z,80.14
2023-03-21T05:05:48.339Z,80.45
2023-03-21T05:08:50.978Z,80.89
2023-03-21T05:11:53.736Z,81.53
2023-03-21T05:14:57.709Z,82.14
2023-03-21T05:18:11.549Z,82.53
2023-03-21T05:21:18.108Z,83.44
2023-03-21T05:24:25.265Z,83.37
2023-03-21T05:27:36.982Z,83.09
2023-03-21T05:30:41.506Z,82.91
2023-03-21T05:33:48.234Z,82.49
2023-03-21T05:36:51.004Z,82.40
2023-03-21T05:39:54.094Z,82.49
2023-03-21T05:42:56.893Z,82.50
2023-03-21T05:46:01.063Z,83.13
2023-03-21T05:49:03.697Z,83.27
2023-03-21T05:52:06.929Z,83.06
2023-03-21T05:55:24.846Z,83.10
2023-03-21T05:58:27.860Z,83.09
2023-03-21T06:01:37.445Z,82.96
2023-03-21T06:04:40.343Z,82.95
2023-03-21T06:07:47.394Z,82.79
2023-03-21T06:10:50.068Z,82.90
2023-03-21T06:13:52.973Z,82.90
2023-03-21T06:16:57.035Z,82.96
2023-03-21T06:20:01.118Z,82.62
2023-03-21T06:23:03.827Z,82.77
2023-03-21T06:26:07.059Z,82.16
2023-03-21T06:29:09.738Z,80.24
2023-03-21T06:32:14.372Z,77.36
2023-03-21T06:35:17.046Z,75.49
2023-03-21T06:38:19.842Z,74.95
2023-03-21T06:41:22.564Z,75.24
2023-03-21T06:44:25.659Z,75.94
2023-03-21T06:47:32.818Z,76.40
2023-03-21T06:50:35.925Z,76.54
2023-03-21T06:53:39.034Z,77.10
2023-03-21T06:56:42.216Z,77.19
2023-03-21T06:59:44.936Z,77.06
2023-03-21T07:02:51.148Z,76.75
2023-03-21T07:05:54.009Z,76.64
2023-03-21T07:08:57.010Z,76.26
2023-03-21T07:11:59.655Z,75.71
2023-03-21T07:15:03.028Z,75.65
2023-03-21T07:18:08.086Z,75.50
2023-03-21T07:21:11.333Z,75.68
2023-03-21T07:24:14.066Z,75.54
2023-03-21T07:27:17.520Z,75.50
2023-03-21T07:30:20.563Z,75.80
2023-03-21T07:33:26.038Z,75.42
2023-03-21T07:36:28.804Z,75.24
2023-03-21T07:39:34.541Z,74.92
2023-03-21T07:42:37.342Z,74.38
2023-03-21T07:45:40.865Z,73.67
2023-03-21T07:48:45.131Z,74.15
2023-03-21T07:51:47.977Z,74.58
2023-03-21T07:54:50.647Z,75.28
2023-03-21T07:57:53.999Z,76.53
2023-03-21T08:00:57.285Z,75.83
2023-03-21T08:04:01.653Z,75.58
2023-03-21T08:07:04.391Z,75.03
2023-03-21T08:10:08.270Z,74.36
2023-03-21T08:13:11.076Z,73.14
2023-03-21T08:16:13.856Z,72.33
2023-03-21T08:19:18.859Z,72.58
2023-03-21T08:22:21.690Z,72.30
2023-03-21T08:25:24.536Z,71.80
2023-03-21T08:28:33.370Z,71.43
2023-03-21T08:31:36.285Z,70.45
2023-03-21T08:34:42.864Z,69.46
2023-03-21T08:37:45.808Z,69.57
2023-03-21T08:40:48.464Z,69.17
2023-03-21T08:43:51.416Z,68.32
2023-03-21T08:46:54.306Z,67.72
2023-03-21T08:49:59.273Z,67.60
2023-03-21T08:53:02.000Z,66.79
2023-03-21T08:56:04.858Z,65.57
2023-03-21T08:59:10.057Z,64.55
2023-03-21T09:02:15.744Z,63.82
2023-03-21T09:05:20.399Z,62.33
2023-03-21T09:08:24.018Z,61.13
2023-03-21T09:11:26.808Z,59.83
2023-03-21T09:14:29.615Z,58.96
2023-03-21T09:17:33.132Z,58.65
2023-03-21T09:20:38.357Z,57.95
2023-03-21T09:23:41.503Z,57.31
2023-03-21T09:26:44.629Z,56.25
2023-03-21T09:29:48.375Z,55.90
2023-03-21T09:32:52.584Z,55.54
2023-03-21T09:35:57.876Z,54.52
2023-03-21T09:39:00.795Z,54.12
2023-03-21T09:42:19.865Z,53.03
2023-03-21T09:45:30.962Z,52.39
2023-03-21T09:48:50.564Z,51.70
2023-03-21T09:52:05.417Z,51.31
2023-03-21T09:55:20.064Z,50.36
2023-03-21T09:58:28.080Z,49.29
2023-03-21T10:01:34.548Z,48.64
2023-03-21T10:04:37.608Z,48.32
2023-03-21T10:07:47.788Z,47.87
2023-03-21T10:10:52.930Z,47.26
2023-03-21T10:14:00.472Z,47.08
2023-03-21T10:17:10.425Z,46.71
2023-03-21T10:20:17.499Z,45.24
2023-03-21T10:23:26.650Z,45.06
2023-03-21T10:26:31.008Z,43.60
2023-03-21T10:29:42.224Z,44.28
2023-03-21T10:32:45.038Z,43.70
2023-03-21T10:35:52.317Z,42.57
2023-03-21T10:39:01.702Z,42.85
2023-03-21T10:42:04.893Z,42.02
2023-03-21T10:45:16.492Z,42.64
2023-03-21T10:48:20.220Z,42.03
2023-03-21T10:51:28.140Z,42.04
2023-03-21T10:54:33.752Z,42.32
2023-03-21T10:57:38.044Z,41.95
2023-03-21T11:00:43.372Z,41.62
2023-03-21T11:03:48.260Z,42.30
2023-03-21T11:06:54.901Z,42.31
2023-03-21T11:10:00.476Z,42.31
2023-03-21T11:13:08.955Z,41.81
2023-03-21T11:16:13.681Z,42.00
2023-03-21T11:19:18.716Z,41.35
2023-03-21T11:22:23.652Z,41.17
2023-03-21T11:25:36.285Z,41.61
2023-03-21T11:28:41.557Z,39.61
2023-03-21T11:31:44.892Z,39.98
2023-03-21T11:34:49.605Z,40.92
2023-03-21T11:37:54.475Z,41.32
2023-03-21T11:41:02.094Z,41.20
2023-03-21T11:44:06.382Z,40.85
2023-03-21T11:47:11.463Z,39.55
2023-03-21T11:50:28.081Z,39.33
2023-03-21T11:53:39.625Z,39.86
2023-03-21T11:56:50.109Z,40.78
2023-03-21T12:00:02.169Z,40.86
2023-03-21T12:03:23.820Z,40.62
2023-03-21T12:06:31.274Z,40.87
2023-03-21T12:09:43.738Z,41.24
2023-03-21T12:12:56.492Z,39.90
2023-03-21T12:16:08.888Z,40.66
2023-03-21T12:19:43.057Z,40.88
2023-03-21T12:22:58.031Z,41.48
2023-03-21T12:26:11.345Z,42.06
2023-03-21T12:29:27.444Z,42.17
2023-03-21T12:32:45.452Z,42.25
2023-03-21T12:36:03.939Z,42.09
2023-03-21T12:39:21.069Z,41.90
2023-03-21T12:42:46.388Z,42.50
2023-03-21T12:45:54.795Z,43.33
2023-03-21T12:49:02.620Z,44.56
2023-03-21T12:52:09.972Z,45.80
2023-03-21T12:55:19.503Z,46.35
2023-03-21T12:58:28.307Z,46.52
2023-03-21T13:01:36.435Z,46.50
2023-03-21T13:04:46.825Z,46.74
2023-03-21T13:07:53.563Z,46.57
2023-03-21T13:10:59.519Z,46.91
2023-03-21T13:14:07.111Z,47.32
2023-03-21T13:17:20.512Z,47.16
2023-03-21T13:20:28.267Z,48.13
2023-03-21T13:23:36.799Z,48.59
2023-03-21T13:26:41.745Z,49.50
2023-03-21T13:29:49.786Z,50.24
2023-03-21T13:33:05.637Z,49.98
2023-03-21T13:36:10.080Z,50.32
2023-03-21T13:39:19.360Z,50.97
2023-03-21T13:42:31.756Z,51.12
2023-03-21T13:45:46.244Z,51.09
2023-03-21T13:49:02.191Z,49.91
2023-03-21T13:52:28.021Z,49.99
2023-03-21T13:55:36.692Z,49.74
2023-03-21T13:58:41.049Z,49.51
2023-03-21T14:01:59.957Z,49.43
2023-03-21T14:05:18.617Z,49.85
2023-03-21T14:08:36.494Z,49.76
2023-03-21T14:11:44.461Z,49.92
2023-03-21T14:14:54.103Z,49.89
2023-03-21T14:17:59.982Z,49.83
2023-03-21T14:21:07.104Z,50.70
2023-03-21T14:24:14.461Z,50.57
2023-03-21T14:27:17.655Z,51.26
2023-03-21T14:30:25.528Z,51.87
2023-03-21T14:33:32.391Z,52.62
2023-03-21T14:36:45.772Z,54.48
2023-03-21T14:40:00.393Z,56.36
2023-03-21T14:43:06.822Z,58.70
2023-03-21T14:46:14.386Z,59.22
2023-03-21T14:49:23.389Z,60.05
2023-03-21T14:52:31.217Z,60.64
2023-03-21T14:55:34.736Z,62.64
2023-03-21T14:58:40.288Z,64.63
2023-03-21T15:01:45.733Z,66.31
2023-03-21T15:04:51.563Z,67.62
2023-03-21T15:07:58.190Z,68.69
2023-03-21T15:11:07.511Z,69.44
2023-03-21T15:14:15.768Z,70.45
2023-03-21T15:17:19.027Z,72.24
2023-03-21T15:20:23.621Z,74.83
2023-03-21T15:23:31.473Z,78.06
2023-03-21T15:26:34.274Z,80.85
2023-03-21T15:29:37.842Z,82.13
2023-03-21T15:32:40.960Z,83.27
2023-03-21T15:35:47.029Z,83.98
2023-03-21T15:38:51.838Z,85.64
2023-03-21T15:41:59.965Z,85.69
2023-03-21T15:45:20.700Z,86.21
2023-03-21T15:48:27.079Z,86.64
2023-03-21T15:51:29.808Z,86.66
2023-03-21T15:54:37.083Z,88.23
2023-03-21T15:57:47.444Z,90.00
2023-03-21T16:00:55.120Z,90.35
2023-03-21T16:04:01.947Z,90.43
2023-03-21T16:07:15.565Z,89.53
2023-03-21T16:10:29.557Z,89.65
2023-03-21T16:13:32.216Z,92.17
2023-03-21T16:16:35.037Z,93.86
2023-03-21T16:19:37.943Z,94.80
2023-03-21T16:22:40.688Z,95.64
2023-03-21T16:25:45.800Z,94.71
2023-03-21T16:28:49.189Z,93.31
2023-03-21T16:31:51.843Z,93.43
2023-03-21T16:34:54.641Z,92.50
2023-03-21T16:37:57.369Z,92.68
2023-03-21T16:41:04.290Z,92.53
2023-03-21T16:44:07.288Z,92.70
2023-03-21T16:47:15.662Z,93.10
2023-03-21T16:50:26.768Z,92.83
2023-03-21T16:53:29.460Z,93.07
2023-03-21T16:56:39.725Z,92.93
2023-03-21T16:59:42.879Z,92.35
2023-03-21T17:02:48.722Z,92.67
2023-03-21T17:05:54.341Z,92.06
2023-03-21T17:08:58.549Z,92.68
2023-03-21T17:12:03.139Z,92.85
2023-03-21T17:15:06.782Z,93.26
2023-03-21T17:18:11.357Z,93.40
2023-03-21T17:21:15.932Z,94.01
2023-03-21T17:24:21.466Z,94.12
2023-03-21T17:27:25.870Z,94.42
2023-03-21T17:30:31.362Z,93.81
2023-03-21T17:33:35.464Z,93.62
2023-03-21T17:36:39.864Z,93.32
2023-03-21T17:39:43.005Z,93.71
2023-03-21T17:42:47.428Z,93.43
2023-03-21T17:45:51.011Z,93.34
2023-03-21T17:48:54.308Z,92.98
2023-03-21T17:51:56.998Z,92.61
2023-03-21T17:55:06.996Z,92.30
2023-03-21T17:58:12.926Z,92.26
2023-03-21T18:01:18.089Z,92.31
2023-03-21T18:04:21.009Z,92.50
2023-03-21T18:07:54.508Z,93.10
2023-03-21T18:10:50.767Z,93.65
2023-03-21T18:14:10.254Z,93.85
2023-03-21T18:17:19.301Z,93.43
2023-03-21T18:20:50.322Z,93.68
2023-03-21T18:23:52.470Z,93.74
2023-03-21T18:26:55.151Z,93.73
2023-03-21T18:30:31.897Z,93.88
2023-03-21T18:33:34.926Z,94.14
2023-03-21T18:36:38.081Z,94.10
2023-03-21T18:39:45.679Z,93.58
2023-03-21T18:43:41.451Z,92.87
2023-03-21T18:46:16.403Z,92.64
2023-03-21T18:52:42.129Z,93.43
2023-03-21T18:55:47.638Z,93.39
2023-03-21T18:58:51.040Z,94.33
2023-03-21T19:01:55.219Z,94.56
2023-03-21T19:04:58.780Z,95.16
2023-03-21T19:08:04.497Z,96.02
2023-03-21T19:11:08.692Z,95.64
2023-03-21T19:14:12.240Z,96.27
2023-03-21T19:18:11.343Z,96.59
2023-03-21T19:20:40.115Z,96.82
2023-03-21T19:24:20.736Z,96.75
2023-03-21T19:27:05.929Z,96.45
2023-03-21T19:30:15.064Z,96.46
2023-03-21T19:33:21.073Z,96.41
2023-03-21T19:36:23.892Z,95.94
2023-03-21T19:39:27.393Z,96.13
2023-03-21T19:42:30.967Z,96.78
2023-03-21T19:45:34.125Z,96.52
2023-03-21T19:48:43.511Z,96.91
2023-03-21T19:51:46.753Z,97.16
2023-03-21T19:54:49.673Z,96.50
2023-03-21T19:57:53.661Z,96.86
2023-03-21T20:00:56.390Z,96.78
2023-03-21T20:04:00.793Z,97.30
2023-03-21T20:07:03.445Z,97.85
2023-03-21T20:10:08.964Z,98.47
2023-03-21T20:13:11.671Z,98.36
2023-03-21T20:16:14.552Z,98.15
2023-03-21T20:19:20.216Z,98.03
2023-03-21T20:22:35.995Z,97.74
2023-03-21T20:25:47.379Z,97.78
2023-03-21T20:29:27.913Z,97.66
2023-03-21T20:32:19.988Z,98.07
2023-03-21T20:35:52.109Z,97.97
2023-03-21T20:38:47.133Z,97.45
2023-03-21T20:41:49.851Z,97.22
2023-03-21T20:44:59.091Z,97.83
2023-03-21T20:48:04.023Z,98.25
2023-03-21T20:52:07.501Z,99.07
2023-03-21T20:54:34.818Z,99.67
2023-03-21T20:57:40.742Z,99.43
2023-03-21T21:00:44.845Z,99.35
2023-03-21T21:03:49.839Z,99.35
2023-03-21T21:06:53.884Z,99.04
2023-03-21T21:09:57.198Z,99.09
2023-03-21T21:12:59.873Z,98.59
2023-03-21T21:16:02.808Z,99.11
2023-03-21T21:19:11.157Z,98.48
2023-03-21T21:22:15.405Z,98.29
2023-03-21T21:25:18.869Z,97.78
2023-03-21T21:28:23.174Z,97.50
2023-03-21T21:31:27.193Z,97.23
2023-03-21T21:34:30.382Z,97.47
2023-03-21T21:37:37.542Z,97.70
2023-03-21T21:40:42.970Z,98.00
2023-03-21T21:43:45.936Z,98.66
2023-03-21T21:46:57.449Z,98.57
2023-03-21T21:50:03.302Z,98.28
2023-03-21T21:53:12.170Z,97.96
2023-03-21T21:56:15.227Z,98.22
2023-03-21T21:59:17.888Z,98.65
2023-03-21T22:02:23.709Z,99.37
2023-03-21T22:05:27.027Z,99.84
2023-03-21T22:08:31.104Z,100.00
2023-03-21T22:11:33.841Z,100.00
2023-03-21T22:14:40.916Z,100.00
2023-03-21T22:17:43.621Z,100.00
2023-03-21T22:20:46.643Z,100.00
2023-03-21T22:23:50.701Z,100.00
2023-03-21T22:26:57.834Z,100.00
2023-03-21T22:30:04.454Z,100.00
2023-03-21T22:33:09.959Z,100.00
2023-03-21T22:36:13.263Z,100.00
2023-03-21T22:39:17.766Z,100.00
2023-03-21T22:42:20.644Z,100.00
2023-03-21T22:45:23.398Z,100.00
2023-03-21T22:48:34.786Z,100.00
2023-03-21T22:51:37.455Z,100.00
2023-03-21T22:54:41.588Z,100.00
2023-03-21T22:57:44.270Z,100.00
2023-03-21T23:00:47.284Z,100.00
2023-03-21T23:03:50.004Z,100.00
2023-03-21T23:06:52.870Z,100.00
2023-03-21T23:09:57.682Z,100.00
2023-03-21T23:13:00.404Z,100.00
2023-03-21T23:16:06.826Z,100.00
2023-03-21T23:19:10.449Z,100.00
2023-03-21T23:22:13.139Z,100.00
2023-03-21T23:25:20.363Z,100.00
2023-03-21T23:28:23.170Z,100.00
2023-03-21T23:31:27.885Z,100.00
2023-03-21T23:34:31.585Z,100.00
2023-03-21T23:37:34.336Z,100.00
2023-03-21T23:40:41.189Z,100.00
2023-03-21T23:43:44.472Z,100.00
2023-03-21T23:46:53.348Z,100.00
2023-03-21T23:49:56.014Z,100.00
2023-03-21T23:53:05.986Z,100.00
2023-03-21T23:56:14.342Z,100.00
2023-03-21T23:59:17.033Z,100.00
